AWG39L LRIA-LROP
Flight info
| Callsign | AWG39L |
|---|---|
| Flight time | 0h 25m |
| Altitude | 29000 |
| Route | ABOLO2A ABOLO T74 DENAK DENAK1U |
| Aircraft | A20N/M-SDE2E3FGHIRWXY/LB1 |
Departure
| Time | 2026-04-24 21:33 |
|---|---|
| Airport | Iaşi International Airport (LRIA) |
Arrival
| Time | 2026-04-24 21:59 |
|---|---|
| Airport | Bucharest Henri Coandă International Airport (LROP) |
| Time | Latitude | Longitude | Altitude | Speed | Heading |
|---|---|---|---|---|---|
| 2026-04-24 20:46 | 47.17526 | 27.61977 | 367 ft | 0 kts | 274° |
| 2026-04-24 21:24 | 47.17525 | 27.61993 | 370 ft | 2 kts | 266° |
| 2026-04-24 21:24 | 47.17527 | 27.62017 | 366 ft | 2 kts | 254° |
| 2026-04-24 21:25 | 47.17534 | 27.62039 | 367 ft | 2 kts | 221° |
| 2026-04-24 21:25 | 47.17549 | 27.62049 | 368 ft | 2 kts | 176° |
| 2026-04-24 21:25 | 47.17559 | 27.62046 | 367 ft | 1 kts | 159° |
| 2026-04-24 21:25 | 47.17560 | 27.62046 | 367 ft | 0 kts | 158° |
| 2026-04-24 21:29 | 47.17550 | 27.62053 | 368 ft | 6 kts | 154° |
| 2026-04-24 21:29 | 47.17476 | 27.62115 | 363 ft | 19 kts | 148° |
| 2026-04-24 21:29 | 47.17326 | 27.62247 | 365 ft | 30 kts | 149° |
| 2026-04-24 21:29 | 47.17259 | 27.62374 | 353 ft | 1 kts | 68° |
| 2026-04-24 21:30 | 47.17285 | 27.62440 | 353 ft | 16 kts | 58° |
| 2026-04-24 21:30 | 47.17353 | 27.62638 | 354 ft | 22 kts | 92° |
| 2026-04-24 21:30 | 47.17284 | 27.62736 | 354 ft | 17 kts | 147° |
| 2026-04-24 21:30 | 47.17181 | 27.62894 | 350 ft | 26 kts | 122° |
| 2026-04-24 21:31 | 47.17125 | 27.62909 | 338 ft | 9 kts | 243° |
| 2026-04-24 21:31 | 47.17151 | 27.62864 | 338 ft | 11 kts | 332° |
| 2026-04-24 21:31 | 47.17167 | 27.62851 | 344 ft | 0 kts | 332° |
| 2026-04-24 21:32 | 47.17182 | 27.62838 | 345 ft | 12 kts | 329° |
| 2026-04-24 21:33 | 47.17447 | 27.62601 | 359 ft | 79 kts | 329° |
| 2026-04-24 21:33 | 47.17833 | 27.62259 | 370 ft | 116 kts | 328° |
| 2026-04-24 21:33 | 47.18988 | 27.61244 | 670 ft | 159 kts | 328° |
| 2026-04-24 21:33 | 47.19909 | 27.60532 | 1764 ft | 146 kts | 334° |
| 2026-04-24 21:34 | 47.20799 | 27.59981 | 2708 ft | 129 kts | 337° |
| 2026-04-24 21:34 | 47.21562 | 27.59457 | 3481 ft | 115 kts | 332° |
| 2026-04-24 21:34 | 47.22258 | 27.58829 | 3945 ft | 126 kts | 323° |
| 2026-04-24 21:34 | 47.23017 | 27.57846 | 4054 ft | 174 kts | 320° |
| 2026-04-24 21:35 | 47.23856 | 27.56360 | 4720 ft | 200 kts | 295° |
| 2026-04-24 21:35 | 47.24027 | 27.54261 | 5806 ft | 222 kts | 262° |
| 2026-04-24 21:35 | 47.23211 | 27.52210 | 6780 ft | 249 kts | 224° |
| 2026-04-24 21:35 | 47.21579 | 27.51178 | 7850 ft | 268 kts | 190° |
| 2026-04-24 21:36 | 47.19673 | 27.51190 | 8924 ft | 279 kts | 178° |
| 2026-04-24 21:36 | 47.17692 | 27.51266 | 9753 ft | 294 kts | 192° |
| 2026-04-24 21:36 | 47.15641 | 27.50598 | 10400 ft | 311 kts | 200° |
| 2026-04-24 21:36 | 47.13498 | 27.49604 | 10899 ft | 336 kts | 202° |
| 2026-04-24 21:37 | 47.11218 | 27.48416 | 11418 ft | 357 kts | 203° |
| 2026-04-24 21:37 | 47.08850 | 27.47158 | 12349 ft | 365 kts | 203° |
| 2026-04-24 21:37 | 47.06428 | 27.45881 | 13326 ft | 374 kts | 202° |
| 2026-04-24 21:37 | 47.03956 | 27.44590 | 14268 ft | 381 kts | 202° |
| 2026-04-24 21:38 | 47.01446 | 27.43291 | 15267 ft | 385 kts | 202° |
| 2026-04-24 21:38 | 46.98902 | 27.41981 | 16239 ft | 390 kts | 202° |
| 2026-04-24 21:38 | 46.96326 | 27.40657 | 17187 ft | 395 kts | 202° |
| 2026-04-24 21:38 | 46.93712 | 27.39314 | 18131 ft | 401 kts | 203° |
| 2026-04-24 21:39 | 46.91066 | 27.37956 | 18957 ft | 406 kts | 202° |
| 2026-04-24 21:39 | 46.88479 | 27.36404 | 19723 ft | 409 kts | 209° |
| 2026-04-24 21:39 | 46.85884 | 27.34626 | 20508 ft | 415 kts | 209° |
| 2026-04-24 21:39 | 46.83262 | 27.32833 | 21277 ft | 420 kts | 209° |
| 2026-04-24 21:40 | 46.80603 | 27.30974 | 22025 ft | 425 kts | 210° |
| 2026-04-24 21:40 | 46.77927 | 27.29067 | 22757 ft | 431 kts | 210° |
| 2026-04-24 21:40 | 46.75222 | 27.27120 | 23464 ft | 436 kts | 210° |
| 2026-04-24 21:40 | 46.72484 | 27.25143 | 24084 ft | 440 kts | 211° |
| 2026-04-24 21:41 | 46.69734 | 27.23158 | 24706 ft | 443 kts | 210° |
| 2026-04-24 21:41 | 46.64676 | 27.19514 | 25740 ft | 449 kts | 210° |
| 2026-04-24 21:41 | 46.59035 | 27.15458 | 26693 ft | 456 kts | 210° |
| 2026-04-24 21:41 | 46.53313 | 27.11356 | 27666 ft | 462 kts | 210° |
| 2026-04-24 21:42 | 46.47450 | 27.07159 | 28041 ft | 480 kts | 210° |
| 2026-04-24 21:42 | 46.41308 | 27.02771 | 28044 ft | 503 kts | 210° |
| 2026-04-24 21:42 | 46.35043 | 26.98324 | 28037 ft | 485 kts | 210° |
| 2026-04-24 21:42 | 46.29217 | 26.94206 | 28036 ft | 457 kts | 210° |
| 2026-04-24 21:43 | 46.23435 | 26.90098 | 28024 ft | 463 kts | 210° |
| 2026-04-24 21:43 | 46.11869 | 26.81933 | 28032 ft | 462 kts | 210° |
| 2026-04-24 21:44 | 46.00310 | 26.73814 | 28029 ft | 462 kts | 210° |
| 2026-04-24 21:44 | 45.88777 | 26.65753 | 28041 ft | 462 kts | 209° |
| 2026-04-24 21:45 | 45.77193 | 26.57692 | 28052 ft | 464 kts | 209° |
| 2026-04-24 21:45 | 45.67515 | 26.50989 | 28049 ft | 465 kts | 209° |
| 2026-04-24 21:46 | 45.54440 | 26.41971 | 28043 ft | 465 kts | 209° |
| 2026-04-24 21:46 | 45.44759 | 26.35326 | 28033 ft | 464 kts | 209° |
| 2026-04-24 21:47 | 45.33140 | 26.27382 | 27762 ft | 459 kts | 208° |
| 2026-04-24 21:47 | 45.27471 | 26.23520 | 26649 ft | 453 kts | 208° |
| 2026-04-24 21:47 | 45.21830 | 26.19685 | 25422 ft | 447 kts | 208° |
| 2026-04-24 21:47 | 45.16252 | 26.15902 | 24218 ft | 440 kts | 208° |
| 2026-04-24 21:48 | 45.10827 | 26.12230 | 23015 ft | 434 kts | 208° |
| 2026-04-24 21:48 | 45.05379 | 26.08550 | 21834 ft | 424 kts | 208° |
| 2026-04-24 21:48 | 45.00169 | 26.05037 | 20696 ft | 416 kts | 208° |
| 2026-04-24 21:48 | 44.94993 | 26.01555 | 19577 ft | 408 kts | 208° |
| 2026-04-24 21:49 | 44.89917 | 25.98146 | 18502 ft | 401 kts | 207° |
| 2026-04-24 21:49 | 44.84918 | 25.94796 | 17365 ft | 393 kts | 207° |
| 2026-04-24 21:49 | 44.79952 | 25.91472 | 15616 ft | 400 kts | 207° |
| 2026-04-24 21:49 | 44.74843 | 25.88059 | 13509 ft | 413 kts | 207° |
| 2026-04-24 21:50 | 44.69657 | 25.84605 | 11759 ft | 407 kts | 207° |
| 2026-04-24 21:50 | 44.64921 | 25.80616 | 10276 ft | 390 kts | 227° |
| 2026-04-24 21:50 | 44.62478 | 25.74152 | 8720 ft | 373 kts | 261° |
| 2026-04-24 21:50 | 44.62384 | 25.66958 | 7114 ft | 366 kts | 271° |
| 2026-04-24 21:51 | 44.61066 | 25.60251 | 5511 ft | 361 kts | 236° |
| 2026-04-24 21:51 | 44.57117 | 25.56198 | 3920 ft | 356 kts | 195° |
| 2026-04-24 21:51 | 44.52367 | 25.56683 | 2654 ft | 340 kts | 153° |
| 2026-04-24 21:51 | 44.49654 | 25.59509 | 2456 ft | 308 kts | 131° |
| 2026-04-24 21:52 | 44.48434 | 25.61837 | 2455 ft | 286 kts | 118° |
| 2026-04-24 21:52 | 44.47720 | 25.64316 | 2457 ft | 265 kts | 99° |
| 2026-04-24 21:52 | 44.47823 | 25.66781 | 2462 ft | 249 kts | 71° |
| 2026-04-24 21:52 | 44.48654 | 25.68900 | 2468 ft | 249 kts | 58° |
| 2026-04-24 21:53 | 44.49593 | 25.70967 | 2469 ft | 252 kts | 59° |
| 2026-04-24 21:53 | 44.50678 | 25.73444 | 2480 ft | 252 kts | 59° |
| 2026-04-24 21:53 | 44.52232 | 25.77130 | 2479 ft | 251 kts | 60° |
| 2026-04-24 21:54 | 44.53867 | 25.81129 | 2479 ft | 237 kts | 63° |
| 2026-04-24 21:54 | 44.54479 | 25.83447 | 2476 ft | 201 kts | 75° |
| 2026-04-24 21:54 | 44.54727 | 25.85230 | 2487 ft | 173 kts | 80° |
| 2026-04-24 21:54 | 44.54874 | 25.86800 | 2502 ft | 154 kts | 82° |
| 2026-04-24 21:55 | 44.54994 | 25.88278 | 2495 ft | 153 kts | 82° |
| 2026-04-24 21:55 | 44.55108 | 25.89762 | 2491 ft | 153 kts | 82° |
| 2026-04-24 21:55 | 44.55220 | 25.91240 | 2499 ft | 153 kts | 82° |
| 2026-04-24 21:55 | 44.55333 | 25.92724 | 2471 ft | 154 kts | 82° |
| 2026-04-24 21:56 | 44.55445 | 25.94210 | 2286 ft | 152 kts | 81° |
| 2026-04-24 21:56 | 44.55556 | 25.95673 | 2085 ft | 150 kts | 81° |
| 2026-04-24 21:56 | 44.55666 | 25.97119 | 1886 ft | 148 kts | 79° |
| 2026-04-24 21:56 | 44.55775 | 25.98557 | 1688 ft | 148 kts | 80° |
| 2026-04-24 21:57 | 44.55883 | 25.99983 | 1486 ft | 149 kts | 80° |
| 2026-04-24 21:57 | 44.55992 | 26.01430 | 1285 ft | 150 kts | 81° |
| 2026-04-24 21:57 | 44.56104 | 26.02890 | 1066 ft | 151 kts | 82° |
| 2026-04-24 21:57 | 44.56214 | 26.04350 | 844 ft | 149 kts | 83° |
| 2026-04-24 21:58 | 44.56327 | 26.05795 | 725 ft | 150 kts | 83° |
| 2026-04-24 21:58 | 44.56434 | 26.07235 | 471 ft | 148 kts | 84° |
| 2026-04-24 21:58 | 44.56538 | 26.08648 | 347 ft | 145 kts | 83° |
| 2026-04-24 21:58 | 44.56642 | 26.09973 | 320 ft | 118 kts | 84° |
| 2026-04-24 21:59 | 44.56693 | 26.10654 | 319 ft | 12 kts | 84° |
| 2026-04-24 21:59 | 44.56770 | 26.10768 | 322 ft | 18 kts | 356° |
| 2026-04-24 21:59 | 44.56926 | 26.10743 | 325 ft | 29 kts | 359° |
| 2026-04-24 21:59 | 44.57059 | 26.10574 | 326 ft | 32 kts | 287° |
| 2026-04-24 22:00 | 44.57055 | 26.10206 | 327 ft | 44 kts | 261° |